sensor_id;sensor_type;location;lat;lon;timestamp;pressure;altitude;pressure_sealevel;temperature;humidity
44127;BME280;29786;50.798;7.302;2023-03-14T00:02:25;96920;;;10.91;100
44127;BME280;29786;50.798;7.302;2023-03-14T00:08:36;96900;;;10.88;100
44127;BME280;29786;50.798;7.302;2023-03-14T00:13:32;96920;;;10.77;100
44127;BME280;29786;50.798;7.302;2023-03-14T00:18:29;96930;;;10.75;100
44127;BME280;29786;50.798;7.302;2023-03-14T00:23:26;96920;;;10.84;100
44127;BME280;29786;50.798;7.302;2023-03-14T00:29:36;96950;;;10.9;100
44127;BME280;29786;50.798;7.302;2023-03-14T00:34:33;96940;;;10.92;100
44127;BME280;29786;50.798;7.302;2023-03-14T00:39:29;96910;;;10.96;100
44127;BME280;29786;50.798;7.302;2023-03-14T00:44:26;96920;;;10.94;100
44127;BME280;29786;50.798;7.302;2023-03-14T00:50:36;96920;;;10.96;100
44127;BME280;29786;50.798;7.302;2023-03-14T00:55:36;96930;;;11.01;100
44127;BME280;29786;50.798;7.302;2023-03-14T01:00:29;96920;;;11.02;100
44127;BME280;29786;50.798;7.302;2023-03-14T01:05:26;96920;;;10.96;100
44127;BME280;29786;50.798;7.302;2023-03-14T01:11:37;96930;;;10.88;100
44127;BME280;29786;50.798;7.302;2023-03-14T01:16:34;96920;;;10.89;100
44127;BME280;29786;50.798;7.302;2023-03-14T01:21:31;96920;;;10.9;100
44127;BME280;29786;50.798;7.302;2023-03-14T01:26:27;96900;;;10.85;100
44127;BME280;29786;50.798;7.302;2023-03-14T01:32:37;96900;;;10.85;100
44127;BME280;29786;50.798;7.302;2023-03-14T01:37:34;96890;;;10.83;100
44127;BME280;29786;50.798;7.302;2023-03-14T01:42:30;96890;;;10.82;100
44127;BME280;29786;50.798;7.302;2023-03-14T01:47:26;96890;;;10.6;100
44127;BME280;29786;50.798;7.302;2023-03-14T01:53:37;96890;;;10.39;100
44127;BME280;29786;50.798;7.302;2023-03-14T01:58:34;96880;;;10.51;100
44127;BME280;29786;50.798;7.302;2023-03-14T02:03:30;96880;;;10.47;100
44127;BME280;29786;50.798;7.302;2023-03-14T02:08:27;96880;;;9.97;100
44127;BME280;29786;50.798;7.302;2023-03-14T02:14:37;96880;;;9.63;100
44127;BME280;29786;50.798;7.302;2023-03-14T02:19:45;96870;;;9.39;100
44127;BME280;29786;50.798;7.302;2023-03-14T02:24:37;96880;;;9.32;100
44127;BME280;29786;50.798;7.302;2023-03-14T02:29:27;96900;;;9.31;100
44127;BME280;29786;50.798;7.302;2023-03-14T02:35:40;96900;;;9.39;100
44127;BME280;29786;50.798;7.302;2023-03-14T02:40:34;96880;;;9.38;100
44127;BME280;29786;50.798;7.302;2023-03-14T02:45:34;96860;;;9.33;100
44127;BME280;29786;50.798;7.302;2023-03-14T02:50:29;96870;;;9.49;100
44127;BME280;29786;50.798;7.302;2023-03-14T02:56:38;96860;;;9.43;100
44127;BME280;29786;50.798;7.302;2023-03-14T03:01:34;96830;;;9.47;100
44127;BME280;29786;50.798;7.302;2023-03-14T03:06:31;96820;;;9.2;100
44127;BME280;29786;50.798;7.302;2023-03-14T03:11:27;96860;;;9.35;100
44127;BME280;29786;50.798;7.302;2023-03-14T03:16:24;96830;;;9.43;100
44127;BME280;29786;50.798;7.302;2023-03-14T03:22:35;96820;;;9.53;100
44127;BME280;29786;50.798;7.302;2023-03-14T03:27:31;96820;;;9.62;100
44127;BME280;29786;50.798;7.302;2023-03-14T03:32:28;96840;;;9.82;100
44127;BME280;29786;50.798;7.302;2023-03-14T03:37:24;96860;;;9.88;100
44127;BME280;29786;50.798;7.302;2023-03-14T03:43:35;96840;;;9.93;100
44127;BME280;29786;50.798;7.302;2023-03-14T03:48:32;96840;;;9.97;100
44127;BME280;29786;50.798;7.302;2023-03-14T03:53:28;96810;;;10.02;100
44127;BME280;29786;50.798;7.302;2023-03-14T03:58:24;96810;;;9.97;100
44127;BME280;29786;50.798;7.302;2023-03-14T04:04:35;96790;;;10.09;100
44127;BME280;29786;50.798;7.302;2023-03-14T04:09:32;96800;;;10.07;100
44127;BME280;29786;50.798;7.302;2023-03-14T04:14:28;96800;;;10.05;100
44127;BME280;29786;50.798;7.302;2023-03-14T04:25:35;96790;;;9.99;100
44127;BME280;29786;50.798;7.302;2023-03-14T04:30:32;96800;;;9.95;100
44127;BME280;29786;50.798;7.302;2023-03-14T04:35:30;96790;;;10.01;100
44127;BME280;29786;50.798;7.302;2023-03-14T04:40:25;96780;;;9.97;100
44127;BME280;29786;50.798;7.302;2023-03-14T04:46:36;96780;;;10.02;100
44127;BME280;29786;50.798;7.302;2023-03-14T04:51:32;96770;;;10.02;100
44127;BME280;29786;50.798;7.302;2023-03-14T04:56:29;96760;;;9.85;100
44127;BME280;29786;50.798;7.302;2023-03-14T05:01:25;96740;;;9.35;100
44127;BME280;29786;50.798;7.302;2023-03-14T05:07:36;96760;;;9;100
44127;BME280;29786;50.798;7.302;2023-03-14T05:12:32;96750;;;8.78;100
44127;BME280;29786;50.798;7.302;2023-03-14T05:17:29;96750;;;8.81;100
44127;BME280;29786;50.798;7.302;2023-03-14T05:22:26;96740;;;8.79;100
44127;BME280;29786;50.798;7.302;2023-03-14T05:28:36;96730;;;8.6;100
44127;BME280;29786;50.798;7.302;2023-03-14T05:33:33;96730;;;8.52;100
44127;BME280;29786;50.798;7.302;2023-03-14T05:38:29;96720;;;8.43;100
44127;BME280;29786;50.798;7.302;2023-03-14T05:49:37;96720;;;8.59;100
44127;BME280;29786;50.798;7.302;2023-03-14T05:54:33;96720;;;8.64;100
44127;BME280;29786;50.798;7.302;2023-03-14T05:59:30;96710;;;8.74;100
44127;BME280;29786;50.798;7.302;2023-03-14T06:04:26;96730;;;8.85;100
44127;BME280;29786;50.798;7.302;2023-03-14T06:10:37;96710;;;8.87;100
44127;BME280;29786;50.798;7.302;2023-03-14T06:15:33;96720;;;8.97;100
44127;BME280;29786;50.798;7.302;2023-03-14T06:20:30;96720;;;8.95;100
44127;BME280;29786;50.798;7.302;2023-03-14T06:25:26;96710;;;8.76;100
44127;BME280;29786;50.798;7.302;2023-03-14T06:31:37;96710;;;8.71;100
44127;BME280;29786;50.798;7.302;2023-03-14T06:36:33;96720;;;8.72;100
44127;BME280;29786;50.798;7.302;2023-03-14T06:41:30;96710;;;8.8;100
44127;BME280;29786;50.798;7.302;2023-03-14T06:46:27;96710;;;8.84;100
44127;BME280;29786;50.798;7.302;2023-03-14T06:52:37;96710;;;8.97;100
44127;BME280;29786;50.798;7.302;2023-03-14T06:57:34;96710;;;9.09;100
44127;BME280;29786;50.798;7.302;2023-03-14T07:02:30;96720;;;9.29;100
44127;BME280;29786;50.798;7.302;2023-03-14T07:07:27;96730;;;9.43;100
44127;BME280;29786;50.798;7.302;2023-03-14T07:13:38;96720;;;9.5;100
44127;BME280;29786;50.798;7.302;2023-03-14T07:18:34;96740;;;9.52;100
44127;BME280;29786;50.798;7.302;2023-03-14T07:23:31;96740;;;9.59;100
44127;BME280;29786;50.798;7.302;2023-03-14T07:28:27;96750;;;9.6;100
44127;BME280;29786;50.798;7.302;2023-03-14T07:33:24;96740;;;9.75;100
44127;BME280;29786;50.798;7.302;2023-03-14T07:39:34;96750;;;9.74;100
44127;BME280;29786;50.798;7.302;2023-03-14T07:44:31;96730;;;10.21;100
44127;BME280;29786;50.798;7.302;2023-03-14T07:49:27;96750;;;10.18;100
44127;BME280;29786;50.798;7.302;2023-03-14T07:55:39;96760;;;10.47;100
44127;BME280;29786;50.798;7.302;2023-03-14T08:00:35;96750;;;10.26;100
44127;BME280;29786;50.798;7.302;2023-03-14T08:05:33;96740;;;10.36;100
44127;BME280;29786;50.798;7.302;2023-03-14T08:10:28;96750;;;10.54;100
44127;BME280;29786;50.798;7.302;2023-03-14T08:15:25;96740;;;10.88;100
44127;BME280;29786;50.798;7.302;2023-03-14T08:21:35;96760;;;10.93;100
44127;BME280;29786;50.798;7.302;2023-03-14T08:26:31;96740;;;10.92;100
44127;BME280;29786;50.798;7.302;2023-03-14T08:31:28;96760;;;11.31;100
44127;BME280;29786;50.798;7.302;2023-03-14T08:36:25;96760;;;11.48;100
44127;BME280;29786;50.798;7.302;2023-03-14T08:42:36;96750;;;11.49;100
44127;BME280;29786;50.798;7.302;2023-03-14T08:47:32;96770;;;11.47;100
44127;BME280;29786;50.798;7.302;2023-03-14T08:52:28;96770;;;11.56;100
44127;BME280;29786;50.798;7.302;2023-03-14T08:57:25;96770;;;11.57;100
44127;BME280;29786;50.798;7.302;2023-03-14T09:03:36;96770;;;11.84;100
44127;BME280;29786;50.798;7.302;2023-03-14T09:08:32;96770;;;11.94;100
44127;BME280;29786;50.798;7.302;2023-03-14T09:13:28;96770;;;11.65;100
44127;BME280;29786;50.798;7.302;2023-03-14T09:18:25;96790;;;10.84;100
44127;BME280;29786;50.798;7.302;2023-03-14T09:24:36;96780;;;10.46;100
44127;BME280;29786;50.798;7.302;2023-03-14T09:29:32;96800;;;9.93;100
44127;BME280;29786;50.798;7.302;2023-03-14T09:34:29;96830;;;9.49;100
44127;BME280;29786;50.798;7.302;2023-03-14T09:39:25;96830;;;9.41;100
44127;BME280;29786;50.798;7.302;2023-03-14T09:45:36;96840;;;9.52;100
44127;BME280;29786;50.798;7.302;2023-03-14T09:50:36;96840;;;9.5;100
44127;BME280;29786;50.798;7.302;2023-03-14T09:55:29;96850;;;9.6;100
44127;BME280;29786;50.798;7.302;2023-03-14T10:00:26;96860;;;9.64;100
44127;BME280;29786;50.798;7.302;2023-03-14T10:06:36;96860;;;9.53;100
44127;BME280;29786;50.798;7.302;2023-03-14T10:11:33;96910;;;9.27;100
44127;BME280;29786;50.798;7.302;2023-03-14T10:16:31;96980;;;7.11;100
44127;BME280;29786;50.798;7.302;2023-03-14T10:27:36;97040;;;6.64;100
44127;BME280;29786;50.798;7.302;2023-03-14T10:32:35;97060;;;6.43;100
44127;BME280;29786;50.798;7.302;2023-03-14T10:37:29;97100;;;6.31;100
44127;BME280;29786;50.798;7.302;2023-03-14T10:42:27;97110;;;6.39;100
44127;BME280;29786;50.798;7.302;2023-03-14T10:48:38;97110;;;6.32;100
44127;BME280;29786;50.798;7.302;2023-03-14T10:53:38;97140;;;6.31;100
44127;BME280;29786;50.798;7.302;2023-03-14T10:58:30;97130;;;6.18;100
44127;BME280;29786;50.798;7.302;2023-03-14T11:03:27;97180;;;6.01;100
44127;BME280;29786;50.798;7.302;2023-03-14T11:10:43;97170;;;6;100
44127;BME280;29786;50.798;7.302;2023-03-14T11:14:34;97180;;;5.94;100
44127;BME280;29786;50.798;7.302;2023-03-14T11:24:31;97220;;;5.87;100
44127;BME280;29786;50.798;7.302;2023-03-14T11:30:39;97220;;;5.87;100
44127;BME280;29786;50.798;7.302;2023-03-14T11:40:30;97240;;;6.08;100
44127;BME280;29786;50.798;7.302;2023-03-14T11:45:29;97250;;;6.19;100
44127;BME280;29786;50.798;7.302;2023-03-14T11:51:39;97270;;;6.3;100
44127;BME280;29786;50.798;7.302;2023-03-14T11:56:37;97260;;;6.48;100
44127;BME280;29786;50.798;7.302;2023-03-14T12:01:33;97280;;;6.63;100
44127;BME280;29786;50.798;7.302;2023-03-14T12:06:32;97290;;;7.05;100
44127;BME280;29786;50.798;7.302;2023-03-14T12:12:38;97340;;;7.12;100
44127;BME280;29786;50.798;7.302;2023-03-14T12:17:36;97310;;;4.98;100
44127;BME280;29786;50.798;7.302;2023-03-14T12:22:33;97360;;;4.89;100
44127;BME280;29786;50.798;7.302;2023-03-14T12:27:45;97410;;;5.11;100
44127;BME280;29786;50.798;7.302;2023-03-14T12:32:24;97390;;;5.35;100
44127;BME280;29786;50.798;7.302;2023-03-14T12:38:46;97420;;;5.19;100
44127;BME280;29786;50.798;7.302;2023-03-14T12:43:32;97420;;;4.98;100
44127;BME280;29786;50.798;7.302;2023-03-14T12:48:28;97470;;;5.11;100
44127;BME280;29786;50.798;7.302;2023-03-14T12:53:35;97490;;;5.11;100
44127;BME280;29786;50.798;7.302;2023-03-14T12:59:36;97500;;;5.34;100
44127;BME280;29786;50.798;7.302;2023-03-14T13:04:34;97510;;;5.15;100
44127;BME280;29786;50.798;7.302;2023-03-14T13:09:36;97530;;;5.46;100
44127;BME280;29786;50.798;7.302;2023-03-14T13:14:24;97540;;;5.52;100
44127;BME280;29786;50.798;7.302;2023-03-14T13:20:36;97560;;;5.67;100
44127;BME280;29786;50.798;7.302;2023-03-14T13:25:32;97570;;;5.6;100
44127;BME280;29786;50.798;7.302;2023-03-14T13:30:29;97580;;;5.41;100
44127;BME280;29786;50.798;7.302;2023-03-14T13:35:26;97600;;;5.45;100
44127;BME280;29786;50.798;7.302;2023-03-14T13:41:35;97610;;;5.5;100
44127;BME280;29786;50.798;7.302;2023-03-14T13:46:33;97620;;;5.68;100
44127;BME280;29786;50.798;7.302;2023-03-14T13:51:28;97640;;;5.86;100
44127;BME280;29786;50.798;7.302;2023-03-14T13:56:26;97660;;;5.81;100
44127;BME280;29786;50.798;7.302;2023-03-14T14:02:36;97680;;;6.02;100
44127;BME280;29786;50.798;7.302;2023-03-14T14:07:32;97690;;;5.8;100
44127;BME280;29786;50.798;7.302;2023-03-14T14:12:30;97700;;;5.65;100
44127;BME280;29786;50.798;7.302;2023-03-14T14:17:35;97720;;;5.53;100
44127;BME280;29786;50.798;7.302;2023-03-14T14:23:36;97740;;;5.24;100
44127;BME280;29786;50.798;7.302;2023-03-14T14:28:33;97760;;;4.92;100
44127;BME280;29786;50.798;7.302;2023-03-14T14:33:29;97760;;;4.96;100
44127;BME280;29786;50.798;7.302;2023-03-14T14:38:25;97780;;;4.94;100
44127;BME280;29786;50.798;7.302;2023-03-14T14:44:36;97800;;;4.94;100
44127;BME280;29786;50.798;7.302;2023-03-14T14:49:33;97810;;;5.36;100
44127;BME280;29786;50.798;7.302;2023-03-14T14:54:37;97830;;;5.44;100
44127;BME280;29786;50.798;7.302;2023-03-14T14:59:26;97850;;;5.28;100
44127;BME280;29786;50.798;7.302;2023-03-14T15:05:37;97880;;;5.12;100
44127;BME280;29786;50.798;7.302;2023-03-14T15:10:33;97890;;;4.96;100
44127;BME280;29786;50.798;7.302;2023-03-14T15:15:29;97910;;;4.87;100
44127;BME280;29786;50.798;7.302;2023-03-14T15:20:26;97920;;;4.79;100
44127;BME280;29786;50.798;7.302;2023-03-14T15:26:37;97940;;;4.8;100
44127;BME280;29786;50.798;7.302;2023-03-14T15:31:34;97940;;;5.01;100
44127;BME280;29786;50.798;7.302;2023-03-14T15:36:31;97960;;;5.03;100
44127;BME280;29786;50.798;7.302;2023-03-14T15:41:26;97970;;;5.14;100
44127;BME280;29786;50.798;7.302;2023-03-14T15:47:37;97970;;;5.13;100
44127;BME280;29786;50.798;7.302;2023-03-14T15:52:33;97980;;;5.25;100
44127;BME280;29786;50.798;7.302;2023-03-14T15:57:30;97990;;;5.37;100
44127;BME280;29786;50.798;7.302;2023-03-14T16:02:26;98000;;;5.4;100
44127;BME280;29786;50.798;7.302;2023-03-14T16:08:37;98010;;;5.26;100
44127;BME280;29786;50.798;7.302;2023-03-14T16:13:34;98020;;;5.18;100
44127;BME280;29786;50.798;7.302;2023-03-14T16:18:31;98030;;;5.15;100
44127;BME280;29786;50.798;7.302;2023-03-14T16:23:27;98040;;;4.85;100
44127;BME280;29786;50.798;7.302;2023-03-14T16:28:23;98050;;;4.71;100
44127;BME280;29786;50.798;7.302;2023-03-14T16:34:37;98060;;;4.57;100
44127;BME280;29786;50.798;7.302;2023-03-14T16:39:30;98070;;;4.53;100
44127;BME280;29786;50.798;7.302;2023-03-14T16:44:27;98090;;;4.53;100
44127;BME280;29786;50.798;7.302;2023-03-14T16:50:39;98100;;;4.41;100
44127;BME280;29786;50.798;7.302;2023-03-14T16:55:39;98100;;;4.41;100
44127;BME280;29786;50.798;7.302;2023-03-14T17:00:31;98110;;;4.23;100
44127;BME280;29786;50.798;7.302;2023-03-14T17:05:27;98150;;;4.33;100
44127;BME280;29786;50.798;7.302;2023-03-14T17:11:38;98150;;;4.38;100
44127;BME280;29786;50.798;7.302;2023-03-14T17:16:34;98160;;;4.33;100
44127;BME280;29786;50.798;7.302;2023-03-14T17:21:31;98150;;;4.07;100
44127;BME280;29786;50.798;7.302;2023-03-14T17:26:27;98190;;;4.17;100
44127;BME280;29786;50.798;7.302;2023-03-14T17:31:24;98200;;;4.13;100
44127;BME280;29786;50.798;7.302;2023-03-14T17:37:35;98210;;;4.14;100
44127;BME280;29786;50.798;7.302;2023-03-14T17:42:31;98200;;;4.06;100
44127;BME280;29786;50.798;7.302;2023-03-14T17:47:28;98240;;;4.21;100
44127;BME280;29786;50.798;7.302;2023-03-14T17:52:24;98260;;;4.16;100
44127;BME280;29786;50.798;7.302;2023-03-14T17:58:35;98280;;;4.09;100
44127;BME280;29786;50.798;7.302;2023-03-14T18:08:28;98300;;;4.09;100
44127;BME280;29786;50.798;7.302;2023-03-14T18:13:24;98310;;;4.15;100
44127;BME280;29786;50.798;7.302;2023-03-14T18:19:35;98330;;;4.26;100
44127;BME280;29786;50.798;7.302;2023-03-14T18:24:32;98330;;;4.26;98.86
44127;BME280;29786;50.798;7.302;2023-03-14T18:29:28;98340;;;4.26;94.78
44127;BME280;29786;50.798;7.302;2023-03-14T18:34:25;98350;;;4.17;92.73
44127;BME280;29786;50.798;7.302;2023-03-14T18:40:35;98360;;;4.23;89.82
44127;BME280;29786;50.798;7.302;2023-03-14T18:45:32;98370;;;4.21;88.22
44127;BME280;29786;50.798;7.302;2023-03-14T18:50:28;98380;;;4.14;90.16
44127;BME280;29786;50.798;7.302;2023-03-14T18:55:25;98390;;;4.16;88.2
44127;BME280;29786;50.798;7.302;2023-03-14T19:01:36;98410;;;4.21;90.51
44127;BME280;29786;50.798;7.302;2023-03-14T19:06:32;98420;;;4.16;90.32
44127;BME280;29786;50.798;7.302;2023-03-14T19:11:29;98430;;;4.21;86.7
44127;BME280;29786;50.798;7.302;2023-03-14T19:16:25;98430;;;4.15;91.49
44127;BME280;29786;50.798;7.302;2023-03-14T19:22:36;98450;;;4.06;92.54
44127;BME280;29786;50.798;7.302;2023-03-14T19:27:32;98450;;;4;93.09
44127;BME280;29786;50.798;7.302;2023-03-14T19:32:29;98470;;;3.93;93.96
44127;BME280;29786;50.798;7.302;2023-03-14T19:37:26;98470;;;3.84;92.38
44127;BME280;29786;50.798;7.302;2023-03-14T19:43:36;98490;;;3.81;88.79
44127;BME280;29786;50.798;7.302;2023-03-14T19:48:33;98500;;;3.77;91.38
44127;BME280;29786;50.798;7.302;2023-03-14T19:53:29;98520;;;3.72;93.82
44127;BME280;29786;50.798;7.302;2023-03-14T19:58:26;98520;;;3.67;94.2
44127;BME280;29786;50.798;7.302;2023-03-14T20:04:36;98540;;;3.53;98.05
44127;BME280;29786;50.798;7.302;2023-03-14T20:09:33;98550;;;3.51;98.41
44127;BME280;29786;50.798;7.302;2023-03-14T20:14:29;98560;;;3.41;100
44127;BME280;29786;50.798;7.302;2023-03-14T20:19:26;98570;;;3.38;97.14
44127;BME280;29786;50.798;7.302;2023-03-14T20:25:37;98590;;;3.35;94.34
44127;BME280;29786;50.798;7.302;2023-03-14T20:30:33;98590;;;3.26;95.25
44127;BME280;29786;50.798;7.302;2023-03-14T20:35:30;98610;;;3.17;92.59
44127;BME280;29786;50.798;7.302;2023-03-14T20:40:26;98610;;;3.1;93.81
44127;BME280;29786;50.798;7.302;2023-03-14T20:46:38;98600;;;3.01;93.75
44127;BME280;29786;50.798;7.302;2023-03-14T20:51:34;98620;;;2.98;92.67
44127;BME280;29786;50.798;7.302;2023-03-14T20:56:30;98640;;;2.89;94.06
44127;BME280;29786;50.798;7.302;2023-03-14T21:01:27;98640;;;2.84;92.11
44127;BME280;29786;50.798;7.302;2023-03-14T21:06:23;98650;;;2.76;92.33
44127;BME280;29786;50.798;7.302;2023-03-14T21:12:34;98660;;;2.64;94.4
44127;BME280;29786;50.798;7.302;2023-03-14T21:17:30;98660;;;2.56;95.26
44127;BME280;29786;50.798;7.302;2023-03-14T21:22:27;98660;;;2.5;95.01
44127;BME280;29786;50.798;7.302;2023-03-14T21:27:23;98670;;;2.45;95.22
44127;BME280;29786;50.798;7.302;2023-03-14T21:33:34;98670;;;2.4;94.41
44127;BME280;29786;50.798;7.302;2023-03-14T21:38:31;98670;;;2.18;95.43
44127;BME280;29786;50.798;7.302;2023-03-14T21:43:27;98700;;;2.18;96.45
44127;BME280;29786;50.798;7.302;2023-03-14T21:54:34;98710;;;2.13;95.85
44127;BME280;29786;50.798;7.302;2023-03-14T21:59:32;98690;;;1.86;97.22
44127;BME280;29786;50.798;7.302;2023-03-14T22:04:28;98700;;;2.03;96.85
44127;BME280;29786;50.798;7.302;2023-03-14T22:09:24;98720;;;1.99;97.82
44127;BME280;29786;50.798;7.302;2023-03-14T22:15:35;98720;;;1.82;100
44127;BME280;29786;50.798;7.302;2023-03-14T22:20:31;98720;;;1.58;100
44127;BME280;29786;50.798;7.302;2023-03-14T22:25:28;98750;;;1.68;100
44127;BME280;29786;50.798;7.302;2023-03-14T22:30:24;98750;;;1.58;100
44127;BME280;29786;50.798;7.302;2023-03-14T22:36:35;98760;;;1.41;100
44127;BME280;29786;50.798;7.302;2023-03-14T22:46:28;98760;;;1.19;100
44127;BME280;29786;50.798;7.302;2023-03-14T22:51:24;98770;;;1.2;100
44127;BME280;29786;50.798;7.302;2023-03-14T22:57:35;98780;;;1.13;100
44127;BME280;29786;50.798;7.302;2023-03-14T23:02:32;98780;;;1.13;100
44127;BME280;29786;50.798;7.302;2023-03-14T23:07:28;98780;;;1.03;100
44127;BME280;29786;50.798;7.302;2023-03-14T23:18:36;98790;;;0.92;100
44127;BME280;29786;50.798;7.302;2023-03-14T23:23:32;98800;;;0.97;100
44127;BME280;29786;50.798;7.302;2023-03-14T23:28:28;98800;;;0.99;100
44127;BME280;29786;50.798;7.302;2023-03-14T23:33:25;98790;;;0.83;100
44127;BME280;29786;50.798;7.302;2023-03-14T23:39:36;98800;;;0.88;100
44127;BME280;29786;50.798;7.302;2023-03-14T23:44:32;98810;;;0.95;100
44127;BME280;29786;50.798;7.302;2023-03-14T23:49:29;98810;;;1.01;100
44127;BME280;29786;50.798;7.302;2023-03-14T23:54:25;98810;;;1.16;100
